Saint George Island, Florida
Current Conditions -  °F | °C
As of 7:53 PM on Monday 24 Nov 2014 (Local Time) from KAAF Reporting Station
Light Rain Light Rain  
Wind Chill: 67°   Ceiling: 4400
Heat Index: 67°   Visibility: 10mi
Dew Point: 62°   Wind: 0mph
Humidity: 84%   Direction: NA
Pressure: 29.95"   Gusts: NA
Location:  29.8852°N, 84.8748°W
Report Text: KAAF 250053Z AUTO 00000KT 10SM -RA OVC044 19/17 A2995 RMK AO2 RAE19B48 SLP142 P0001 T01940167 TSNO
Loading
Personal Weather Stations






























Interactive Weather Map New forecast layout! Learn more

10-Day Weather Forecast

Advertisements
Track Severe Weather on mobile